Lawton, OK

12:47 AM CDT on September 18, 2014 (GMT -0500)
Old Town North | Change Station
CLOSE
Current Station
Personal Weather Station
Location: Lawton, OK
Elevation: 1168 ft
Nearby Weather Stations

Elev 1168 ft 34.61 °N, 98.41 °W | Updated 9 minutes ago

Overcast
Overcast
77.2 °F
Feels Like 79 °F
N
2.2
Wind Variable Wind from SSW

Today
High -- | Low -- °F
--% Chance of Precip.
Yesterday
High -- | Low -- °F
Precip. -- in
7:18 AM 7:36 PM
Waning Crescent, 30% visible
Pressure 29.84 in
Visibility 10.0 miles
Clouds Overcast 20000 ft
Heat Index 79 °F
Dew Point 68 °F
Humidity 73%
Rainfall 0.00 in
Snow Depth Not available.
UV 0 out of 12
Pollen 10.50 out of 12
Air Quality Not available.
Flu Activity Not available.
METAR KFSI 180255Z 19007KT 10SM OVC200 26/19 A2989 RMK AO2A SLP104 T02580191 51012

More Conditions Fewer Conditions

Pressure 29.84 in
Visibility 10.0 miles
Clouds Overcast 20000 ft
Heat Index 79 °F
Dew Point 68 °F
Humidity 73%
Rainfall 0.00 in
Snow Depth Not available.
UV 0 out of 12
Pollen 10.50 out of 12
Air Quality Not available.
Flu Activity Not available.
METAR KFSI 180255Z 19007KT 10SM OVC200 26/19 A2989 RMK AO2A SLP104 T02580191 51012

More Conditions Fewer Conditions

10-Day Weather Forecast

Almanac

Astronomy

Sep. 18, 2014 Rise Set
Actual Time 7:18 AM CDT 7:36 PM CDT
Civil Twilight 6:53 AM CDT 8:01 PM CDT
Nautical Twilight 6:24 AM CDT 8:30 PM CDT
Astronomical Twilight 5:54 AM CDT 9:00 PM CDT
Moon 2:21 AM CDT 4:19 PM CDT
Length of Visible Light 13h 07m
Length of Day
12h 17m
Tomorrow will be 2m 9s shorter.
Waning Crescent, 30% of the Moon is Illuminated
Today
Waning Crescent
Sep 24
New
Oct 1
First Quarter
Oct 8
Full
Oct 15
Last Quarter

Today's Extremes

State Highs State Lows

Community

WunderPhotos

Upload Photos

1,754,292 photos uploaded!

Nearby

Air Quality

  Air Quality AQ Index Pollutant
Wednesday Moderate
PM2.5
Wednesday Good
OZONE
Thursday Moderate
PM2.5
Thursday Good
OZONE
Friday Good
PM2.5
Friday Good
OZONE
Saturday Good
PM2.5
Saturday Good
OZONE
Sunday Good
PM2.5
Sunday Good
OZONE

Snow Depth

Station Depth Elevation
No new snow has been reported.

Earthquake Activity

City Distance Mag. Time & Date
Helena, Oklahoma 129 miles 2.8 4:01 PM CDT
2014-09-17
Perry, Oklahoma 125 miles 2.5 2:57 PM CDT
2014-09-17
Perry, Oklahoma 125 miles 2.7 1:28 PM CDT
2014-09-17
Guthrie, Oklahoma 99 miles 2.5 11:33 AM CDT
2014-09-17
Minimum magnitude displayed is 2.5.

Coastal Water Temperatures

Place Temperature
No Stations Reporting

Nearby Weather Stations